Time;durP1;ratioP1;P1;durP2;ratioP2;P2;SDS_P1;SDS_P2;PMS_P1;PMS_P2;Temp;Humidity;BMP_temperature;BMP_pressure;BME280_temperature;BME280_humidity;BME280_pressure;Samples;Min_cycle;Max_cycle;Signal;HPM_P1;HPM_P2
2022/04/28 00:00:30;;;;;;;15.38;6.63;;;;;;;6.37;100.00;103007.38;5092490;28;20027;-71
2022/04/28 00:02:56;;;;;;;8.38;5.75;;;;;;;6.28;100.00;103007.66;5093529;28;20055;-71
2022/04/28 00:05:22;;;;;;;16.33;5.82;;;;;;;6.23;100.00;103007.31;5092552;28;20440;-71
2022/04/28 00:07:47;;;;;;;16.00;6.95;;;;;;;6.31;100.00;103012.16;5094446;28;20024;-70
2022/04/28 00:10:13;;;;;;;11.40;6.65;;;;;;;6.24;100.00;103005.63;5094468;28;20361;-70
2022/04/28 00:12:39;;;;;;;13.85;6.20;;;;;;;6.19;100.00;103005.28;5084695;28;20081;-71
2022/04/28 00:15:06;;;;;;;14.70;6.50;;;;;;;6.22;100.00;103001.97;5093910;28;20028;-72
2022/04/28 00:17:31;;;;;;;13.93;6.95;;;;;;;6.19;100.00;103005.28;5093235;28;20121;-72
2022/04/28 00:19:58;;;;;;;11.90;6.25;;;;;;;6.24;100.00;103009.13;5093181;28;20068;-71
2022/04/28 00:22:24;;;;;;;17.92;6.55;;;;;;;6.26;100.00;103008.34;5092764;28;20035;-71
2022/04/28 00:24:50;;;;;;;14.88;6.25;;;;;;;6.22;100.00;102997.66;5093578;28;20115;-71
2022/04/28 00:27:15;;;;;;;15.98;6.82;;;;;;;6.43;100.00;103001.63;5093578;28;20074;-72
2022/04/28 00:29:40;;;;;;;15.50;7.65;;;;;;;6.22;100.00;103002.88;5092482;28;20028;-71
2022/04/28 00:32:06;;;;;;;16.67;6.88;;;;;;;6.40;100.00;103000.66;5084425;28;20031;-71
2022/04/28 00:34:32;;;;;;;12.45;7.40;;;;;;;6.37;100.00;102997.78;5091911;28;20024;-72
2022/04/28 00:36:57;;;;;;;11.98;6.53;;;;;;;6.27;100.00;102998.00;5093598;28;20454;-71
2022/04/28 00:39:22;;;;;;;15.93;6.80;;;;;;;6.20;100.00;102999.28;5092352;28;20028;-71
2022/04/28 00:41:48;;;;;;;17.55;6.80;;;;;;;6.35;100.00;102994.19;5092156;28;20119;-70
2022/04/28 00:44:13;;;;;;;17.85;6.80;;;;;;;6.22;100.00;102995.03;5093355;28;20028;-71
2022/04/28 00:46:40;;;;;;;14.40;6.57;;;;;;;6.15;100.00;102991.91;5093308;28;20027;-70
2022/04/28 00:51:49;;;;;;;;;;;;;;;6.17;100.00;102996.44;5093858;28;20085;-71
2022/04/28 00:54:15;;;;;;;23.92;7.05;;;;;;;6.10;100.00;102995.91;5090617;28;19912;-71
2022/04/28 00:56:41;;;;;;;16.27;6.43;;;;;;;6.02;100.00;102996.28;5093451;28;20076;-71
2022/04/28 00:59:07;;;;;;;11.45;6.03;;;;;;;5.97;100.00;102995.03;5091622;28;20418;-71
2022/04/28 01:01:33;;;;;;;19.52;6.82;;;;;;;6.04;100.00;102993.78;5093112;28;20027;-72
2022/04/28 01:04:00;;;;;;;20.75;8.52;;;;;;;5.95;100.00;102996.59;5092134;28;20020;-71
2022/04/28 01:06:25;;;;;;;17.17;7.72;;;;;;;5.89;100.00;103001.41;5092792;28;20405;-71
2022/04/28 01:08:51;;;;;;;17.48;7.40;;;;;;;5.88;100.00;102994.38;5093317;28;20108;-71
2022/04/28 01:11:17;;;;;;;15.90;7.10;;;;;;;5.90;100.00;102987.53;5090587;28;20387;-71
2022/04/28 01:13:43;;;;;;;21.92;7.53;;;;;;;5.93;100.00;102992.06;5092361;28;20024;-72
2022/04/28 01:16:09;;;;;;;14.57;7.07;;;;;;;5.91;100.00;102989.34;5091656;28;20031;-71
2022/04/28 01:18:35;;;;;;;19.45;7.38;;;;;;;5.93;100.00;102985.16;5091516;28;20132;-72
2022/04/28 01:21:04;;;;;;;18.90;6.68;;;;;;;5.92;100.00;102991.16;5092796;28;20455;-71
2022/04/28 01:23:31;;;;;;;13.30;6.93;;;;;;;5.87;100.00;102988.25;5092524;28;20036;-71
2022/04/28 01:25:57;;;;;;;16.55;7.47;;;;;;;5.88;100.00;102990.03;5093072;28;20487;-71
2022/04/28 01:28:22;;;;;;;14.88;7.28;;;;;;;5.85;100.00;102989.84;5086173;28;20039;-71
2022/04/28 01:30:48;;;;;;;17.50;7.40;;;;;;;5.86;100.00;102996.88;5091561;28;20077;-71
2022/04/28 01:33:13;;;;;;;10.57;6.82;;;;;;;5.89;100.00;102997.09;5102798;28;20039;-71
2022/04/28 01:35:39;;;;;;;15.80;8.27;;;;;;;5.84;100.00;102992.34;5092733;28;20371;-72
2022/04/28 01:38:04;;;;;;;11.98;6.82;;;;;;;5.85;100.00;103000.28;5092686;28;20118;-71
2022/04/28 01:40:30;;;;;;;14.75;7.80;;;;;;;5.83;100.00;102996.66;5090687;28;20131;-71
2022/04/28 01:42:55;;;;;;;10.63;7.15;;;;;;;5.86;100.00;102995.94;5092810;28;20024;-70
2022/04/28 01:45:20;;;;;;;13.90;8.55;;;;;;;5.87;100.00;102989.94;5091811;28;20012;-72
2022/04/28 01:47:46;;;;;;;17.08;8.63;;;;;;;5.86;100.00;102996.88;5091391;28;20020;-72
2022/04/28 01:50:11;;;;;;;20.20;9.65;;;;;;;5.85;100.00;102986.31;5091499;28;20020;-71
2022/04/28 01:55:22;;;;;;;16.50;7.85;;;;;;;5.86;100.00;102986.44;5091991;28;20160;-70
2022/04/28 01:57:48;;;;;;;13.02;7.40;;;;;;;5.81;100.00;102993.03;5091247;28;20029;-71
2022/04/28 02:00:15;;;;;;;16.80;8.48;;;;;;;5.80;100.00;102990.31;5086807;28;20042;-70
2022/04/28 02:02:41;;;;;;;16.17;8.75;;;;;;;5.87;100.00;102998.69;5091894;28;20040;-71
2022/04/28 02:05:07;;;;;;;13.13;8.05;;;;;;;5.83;100.00;103000.97;5090726;28;20114;-72
2022/04/28 02:07:34;;;;;;;16.27;9.05;;;;;;;5.79;100.00;102994.59;5092114;28;20070;-71
2022/04/28 02:09:59;;;;;;;15.73;8.88;;;;;;;5.81;100.00;102997.34;5090142;28;20028;-72
2022/04/28 02:12:26;;;;;;;17.60;8.68;;;;;;;5.71;100.00;102998.38;5091552;28;20020;-71
2022/04/28 02:14:52;;;;;;;17.17;8.18;;;;;;;5.68;100.00;103001.72;5080570;28;20467;-72
2022/04/28 02:17:24;;;;;;;15.18;9.07;;;;;;;5.67;100.00;102994.66;5105620;28;20023;-72
2022/04/28 02:19:50;;;;;;;19.05;8.93;;;;;;;5.62;100.00;103001.25;5091812;28;20043;-70
2022/04/28 02:22:15;;;;;;;17.23;8.95;;;;;;;5.65;100.00;103000.56;5091543;28;20032;-71
2022/04/28 02:24:41;;;;;;;15.07;8.60;;;;;;;5.57;100.00;103000.00;5090733;28;20114;-71
2022/04/28 02:27:06;;;;;;;17.08;8.35;;;;;;;5.56;100.00;103006.03;5095456;28;20103;-71
2022/04/28 02:29:33;;;;;;;18.65;8.95;;;;;;;5.57;100.00;103007.84;5090555;28;20024;-71
2022/04/28 02:31:58;;;;;;;22.42;9.60;;;;;;;5.54;100.00;103007.63;5094088;28;20452;-71
2022/04/28 02:34:24;;;;;;;15.18;8.90;;;;;;;5.57;100.00;103007.84;5093142;28;20020;-73
2022/04/28 02:36:49;;;;;;;11.10;8.20;;;;;;;5.54;100.00;103007.63;5095710;28;20483;-70
2022/04/28 02:39:15;;;;;;;21.08;8.65;;;;;;;5.47;100.00;103010.63;5094867;28;20426;-72
2022/04/28 02:41:44;;;;;;;18.52;9.57;;;;;;;5.45;100.00;103001.75;5095757;28;20077;-71
2022/04/28 02:44:11;;;;;;;23.13;8.85;;;;;;;5.38;100.00;102996.06;5088768;28;20024;-72
2022/04/28 02:46:37;;;;;;;16.58;8.45;;;;;;;5.35;100.00;103003.69;5094947;28;20028;-73
2022/04/28 02:49:03;;;;;;;17.17;8.82;;;;;;;5.35;100.00;103001.06;5093286;28;20105;-71
2022/04/28 02:51:28;;;;;;;18.55;8.90;;;;;;;5.34;100.00;103003.56;5094885;28;20023;-71
2022/04/28 02:53:53;;;;;;;14.85;10.38;;;;;;;5.34;100.00;102998.34;5095178;28;20036;-72
2022/04/28 02:56:19;;;;;;;16.33;9.18;;;;;;;5.30;100.00;103002.44;5093924;28;20052;-71
2022/04/28 02:58:45;;;;;;;15.90;9.27;;;;;;;5.27;100.00;103002.22;5094506;28;20117;-71
2022/04/28 03:01:11;;;;;;;17.73;8.73;;;;;;;5.22;100.00;103000.97;5095116;28;20028;-70
2022/04/28 03:03:36;;;;;;;19.40;9.02;;;;;;;5.21;100.00;102993.97;5095018;28;20321;-70
2022/04/28 03:11:30;;;;;;;18.65;9.02;;;;;;;5.00;100.00;102999.38;5094994;28;19935;-70
2022/04/28 03:13:56;;;;;;;23.73;9.82;;;;;;;4.95;100.00;102997.25;5094199;28;20032;-72
2022/04/28 03:16:22;;;;;;;23.17;10.00;;;;;;;4.98;100.00;102997.47;5094803;28;20020;-71
2022/04/28 03:18:48;;;;;;;15.50;9.02;;;;;;;4.87;100.00;102999.25;5095302;28;20442;-72
2022/04/28 03:21:14;;;;;;;17.23;9.60;;;;;;;4.88;100.00;102995.88;5093985;28;20020;-71
2022/04/28 03:23:39;;;;;;;16.52;9.90;;;;;;;4.90;100.00;103002.13;5076308;28;20482;-72
2022/04/28 03:26:04;;;;;;;19.05;10.88;;;;;;;4.91;100.00;103009.16;5094399;28;20081;-71
2022/04/28 03:28:34;;;;;;;13.70;9.30;;;;;;;4.91;100.00;103001.34;5093454;28;20080;-71
2022/04/28 03:31:01;;;;;;;14.02;9.85;;;;;;;4.93;100.00;103004.06;5093586;28;20024;-71
2022/04/28 03:33:26;;;;;;;17.92;10.35;;;;;;;4.88;100.00;103001.09;5095124;28;20031;-71
2022/04/28 03:35:52;;;;;;;18.40;10.00;;;;;;;4.87;100.00;103004.47;5094055;28;20369;-71
2022/04/28 03:38:17;;;;;;;18.70;9.52;;;;;;;4.81;100.00;102999.72;5094282;28;20080;-71
2022/04/28 03:40:43;;;;;;;18.38;10.52;;;;;;;4.76;100.00;103001.09;5093337;28;20440;-70
2022/04/28 03:43:09;;;;;;;21.02;10.88;;;;;;;4.75;100.00;102998.34;5094705;28;20114;-70
2022/04/28 03:45:35;;;;;;;23.65;10.70;;;;;;;4.72;100.00;102999.94;5091154;28;20027;-71
2022/04/28 03:48:01;;;;;;;16.48;10.68;;;;;;;4.72;100.00;103002.56;5091566;28;20475;-71
2022/04/28 03:50:30;;;;;;;20.58;10.95;;;;;;;4.73;100.00;103001.78;5093908;28;20031;-71
2022/04/28 03:52:57;;;;;;;19.20;11.05;;;;;;;4.65;100.00;103002.91;5094841;28;20020;-71
2022/04/28 03:55:22;;;;;;;17.83;11.23;;;;;;;4.56;100.00;103008.31;5093629;28;20028;-71
2022/04/28 03:57:48;;;;;;;20.67;11.23;;;;;;;4.52;100.00;103002.75;5094505;28;20023;-71
2022/04/28 04:00:13;;;;;;;19.75;11.13;;;;;;;4.51;100.00;102999.22;5092396;28;20100;-72
2022/04/28 04:02:39;;;;;;;21.00;11.57;;;;;;;4.47;100.00;103002.38;5094512;28;20032;-72
2022/04/28 04:05:05;;;;;;;21.13;10.07;;;;;;;4.38;100.00;103002.59;5093093;28;20024;-71
2022/04/28 04:07:32;;;;;;;17.40;11.18;;;;;;;4.44;100.00;102996.94;5094389;28;20024;-71
2022/04/28 04:09:58;;;;;;;19.95;9.77;;;;;;;4.38;100.00;102997.41;5091315;28;20398;-70
2022/04/28 04:12:25;;;;;;;18.02;11.05;;;;;;;4.42;100.00;102998.50;5091938;28;20107;-71
2022/04/28 04:14:51;;;;;;;16.55;11.40;;;;;;;4.41;100.00;103007.16;5092053;28;20047;-70
2022/04/28 04:17:17;;;;;;;22.67;12.07;;;;;;;4.28;100.00;103001.78;5093024;28;20031;-71
2022/04/28 04:19:42;;;;;;;18.58;10.48;;;;;;;4.38;100.00;103000.00;5091699;28;20445;-72
2022/04/28 04:22:08;;;;;;;22.90;11.98;;;;;;;4.38;100.00;103001.69;5094168;28;20032;-70
2022/04/28 04:24:34;;;;;;;21.83;11.45;;;;;;;4.44;100.00;102999.56;5093122;28;20028;-71
2022/04/28 04:27:00;;;;;;;21.00;12.82;;;;;;;4.27;100.00;103013.88;5086250;28;20036;-71
2022/04/28 04:29:25;;;;;;;24.45;12.80;;;;;;;4.32;100.00;103017.75;5092856;28;20123;-72
2022/04/28 04:34:34;;;;;;;19.15;11.77;;;;;;;4.27;100.00;103018.19;5093585;28;20395;-71
2022/04/28 04:37:00;;;;;;;22.30;12.15;;;;;;;4.25;100.00;103023.28;5093620;28;20024;-72
2022/04/28 04:39:25;;;;;;;21.85;12.25;;;;;;;4.27;100.00;103026.03;5092435;28;20090;-72
2022/04/28 04:41:50;;;;;;;26.65;12.30;;;;;;;4.27;100.00;103023.41;5092954;28;20027;-71
2022/04/28 04:44:16;;;;;;;18.90;11.48;;;;;;;4.25;100.00;103025.91;5092667;28;20040;-71
2022/04/28 04:46:41;;;;;;;19.05;12.93;;;;;;;4.25;100.00;103033.72;5092786;28;20562;-71
2022/04/28 04:49:07;;;;;;;25.48;12.25;;;;;;;4.30;100.00;103035.00;5090811;28;20470;-71
2022/04/28 04:51:33;;;;;;;19.40;11.93;;;;;;;4.33;100.00;103031.72;5092643;28;20081;-71
2022/04/28 04:53:58;;;;;;;21.20;11.57;;;;;;;4.34;100.00;103037.03;5093777;28;20378;-72
2022/04/28 04:56:23;;;;;;;17.25;11.50;;;;;;;4.33;100.00;103040.44;5092124;28;20032;-70
2022/04/28 04:58:49;;;;;;;25.02;12.73;;;;;;;4.42;100.00;103047.16;5091804;28;20019;-71
2022/04/28 05:01:14;;;;;;;17.50;11.50;;;;;;;4.43;100.00;103057.69;5091350;28;20089;-70
2022/04/28 05:03:41;;;;;;;18.80;12.43;;;;;;;4.44;100.00;103054.31;5089294;28;20028;-70
2022/04/28 05:06:07;;;;;;;17.80;11.90;;;;;;;4.48;100.00;103064.19;5091168;28;20024;-71
2022/04/28 05:08:32;;;;;;;21.30;12.40;;;;;;;4.50;100.00;103060.00;5090158;28;20027;-71
2022/04/28 05:10:57;;;;;;;23.92;12.93;;;;;;;4.57;100.00;103061.34;5092705;28;20054;-71
2022/04/28 05:13:23;;;;;;;21.25;12.60;;;;;;;4.72;100.00;103057.34;5091138;28;20035;-71
2022/04/28 05:15:48;;;;;;;24.33;12.40;;;;;;;4.70;100.00;103064.13;5091413;28;20103;-72
2022/04/28 05:18:14;;;;;;;23.65;13.27;;;;;;;4.94;100.00;103063.25;5092598;28;20059;-71
2022/04/28 05:20:39;;;;;;;21.67;12.75;;;;;;;5.02;100.00;103067.38;5091892;28;20047;-71
2022/04/28 05:23:04;;;;;;;20.15;11.05;;;;;;;5.05;100.00;103072.81;5090417;28;20015;-71
2022/04/28 05:25:30;;;;;;;19.02;9.75;;;;;;;5.18;100.00;103074.63;5090809;28;20035;-70
2022/04/28 05:27:55;;;;;;;23.30;10.85;;;;;;;5.21;100.00;103075.78;5090559;28;20020;-71
2022/04/28 05:30:22;;;;;;;18.77;10.82;;;;;;;5.18;100.00;103074.63;5094860;28;20355;-70
2022/04/28 05:32:47;;;;;;;25.67;11.70;;;;;;;5.32;100.00;103079.19;5090198;28;20046;-72
2022/04/28 05:35:12;;;;;;;19.80;10.55;;;;;;;5.38;100.00;103090.06;5092378;28;20024;-71
2022/04/28 05:37:39;;;;;;;21.48;11.43;;;;;;;5.43;100.00;103092.13;5091158;28;20035;-72
2022/04/28 05:40:06;;;;;;;16.58;9.88;;;;;;;5.43;100.00;103093.03;5082345;28;20382;-71
2022/04/28 05:47:59;;;;;;;17.08;10.55;;;;;;;5.65;100.00;103110.28;5090753;28;20063;-71
2022/04/28 05:50:26;;;;;;;26.70;11.02;;;;;;;5.77;100.00;103115.50;5090589;28;20024;-72
2022/04/28 05:52:51;;;;;;;19.52;11.38;;;;;;;5.87;100.00;103124.13;5091733;28;20047;-70
2022/04/28 05:55:17;;;;;;;20.13;10.57;;;;;;;5.98;100.00;103127.53;5091259;28;20101;-70
2022/04/28 05:57:42;;;;;;;23.95;11.15;;;;;;;6.00;100.00;103131.16;5092789;28;20044;-71
2022/04/28 06:00:08;;;;;;;22.27;10.82;;;;;;;6.10;100.00;103116.16;5091825;28;20024;-72
2022/04/28 06:02:34;;;;;;;14.60;9.70;;;;;;;6.10;100.00;103126.59;5095927;28;20020;-72
2022/04/28 06:05:00;;;;;;;14.90;9.95;;;;;;;6.13;100.00;103118.97;5094238;28;20467;-72
2022/04/28 06:07:26;;;;;;;21.25;10.48;;;;;;;6.15;100.00;103125.22;5095833;28;20032;-72
2022/04/28 06:09:51;;;;;;;17.85;10.13;;;;;;;6.19;100.00;103129.88;5094700;28;20077;-71
2022/04/28 06:12:17;;;;;;;20.85;9.15;;;;;;;6.23;100.00;103129.28;5094697;28;20032;-70
2022/04/28 06:14:42;;;;;;;20.88;9.10;;;;;;;6.28;100.00;103138.38;5096097;28;20028;-71
2022/04/28 06:17:08;;;;;;;15.90;9.30;;;;;;;6.36;100.00;103136.28;5094547;28;20478;-71
2022/04/28 06:19:33;;;;;;;18.42;9.65;;;;;;;6.43;100.00;103133.34;5092148;28;20062;-71
2022/04/28 06:21:59;;;;;;;22.50;9.93;;;;;;;6.48;100.00;103133.63;5094790;28;20030;-71
2022/04/28 06:24:25;;;;;;;18.40;8.32;;;;;;;6.59;100.00;103148.38;5091982;28;20055;-71
2022/04/28 06:26:51;;;;;;;21.42;9.80;;;;;;;6.69;100.00;103145.59;5091657;28;20067;-72
2022/04/28 06:29:16;;;;;;;13.52;7.28;;;;;;;6.79;100.00;103141.00;5092437;28;20123;-69
2022/04/28 06:31:42;;;;;;;21.05;7.60;;;;;;;6.80;100.00;103146.34;5092172;28;20082;-70
2022/04/28 06:34:07;;;;;;;14.43;7.80;;;;;;;6.86;100.00;103156.34;5093973;28;20024;-68
2022/04/28 06:36:34;;;;;;;14.65;8.68;;;;;;;6.89;100.00;103156.53;5093319;28;20067;-69
2022/04/28 06:39:02;;;;;;;17.58;8.10;;;;;;;6.88;100.00;103157.34;5089962;28;20451;-71
2022/04/28 06:41:27;;;;;;;14.93;7.90;;;;;;;6.88;100.00;103160.88;5093219;28;20020;-71
2022/04/28 06:43:53;;;;;;;15.43;8.45;;;;;;;6.95;100.00;103156.97;5092139;28;20119;-72
2022/04/28 06:46:18;;;;;;;17.85;7.28;;;;;;;7.08;100.00;103159.63;5091832;28;20029;-71
2022/04/28 06:48:47;;;;;;;21.67;7.35;;;;;;;7.20;100.00;103159.56;5094153;28;20105;-70
2022/04/28 06:51:14;;;;;;;17.65;7.45;;;;;;;7.32;100.00;103166.41;5093175;28;20052;-72
2022/04/28 06:53:40;;;;;;;16.80;7.70;;;;;;;7.41;100.00;103169.66;5094679;28;20389;-72
2022/04/28 06:56:06;;;;;;;12.70;7.13;;;;;;;7.45;100.00;103176.00;5093144;28;20082;-72
2022/04/28 06:58:32;;;;;;;18.90;7.50;;;;;;;7.49;100.00;103168.47;5093718;28;20042;-72
2022/04/28 07:01:01;;;;;;;12.98;7.15;;;;;;;7.63;100.00;103166.75;5090449;28;20028;-71
2022/04/28 07:03:26;;;;;;;19.50;7.32;;;;;;;7.69;100.00;103175.03;5094508;28;20020;-70
2022/04/28 07:05:53;;;;;;;14.20;7.70;;;;;;;7.78;100.00;103177.34;5093898;28;21399;-73
2022/04/28 07:08:18;;;;;;;14.10;6.85;;;;;;;7.82;100.00;103173.22;5094298;28;20028;-71
2022/04/28 07:10:44;;;;;;;15.93;7.15;;;;;;;7.88;99.52;103174.53;5091252;28;20039;-71
2022/04/28 07:13:09;;;;;;;11.93;6.55;;;;;;;8.00;100.00;103182.25;5091325;28;20479;-70
2022/04/28 07:15:35;;;;;;;12.93;6.60;;;;;;;8.07;98.46;103187.13;5094803;28;20028;-70
2022/04/28 07:18:03;;;;;;;14.75;5.88;;;;;;;8.19;97.35;103188.69;5092901;28;20059;-70
2022/04/28 07:20:30;;;;;;;15.18;6.65;;;;;;;8.23;98.32;103188.09;5077700;28;20414;-70
2022/04/28 07:22:56;;;;;;;14.60;5.22;;;;;;;8.32;97.43;103196.53;5092194;28;20446;-69
2022/04/28 07:25:21;;;;;;;17.15;6.35;;;;;;;8.38;96.93;103203.91;5093056;28;20059;-70
2022/04/28 07:27:46;;;;;;;8.32;5.15;;;;;;;8.54;95.71;103205.81;5083036;28;20425;-71
2022/04/28 07:30:12;;;;;;;12.32;4.80;;;;;;;8.59;93.92;103199.16;5091951;28;20020;-71
2022/04/28 07:32:38;;;;;;;11.43;6.20;;;;;;;8.66;94.38;103200.44;5094319;28;20032;-70
2022/04/28 07:35:03;;;;;;;14.77;5.00;;;;;;;8.74;95.62;103197.47;5092253;28;20019;-70
2022/04/28 07:37:29;;;;;;;15.07;4.68;;;;;;;8.82;94.10;103197.94;5093927;28;20399;-70
2022/04/28 07:39:54;;;;;;;14.25;5.50;;;;;;;8.96;92.93;103201.41;5093373;28;20047;-70
2022/04/28 07:42:19;;;;;;;10.20;5.85;;;;;;;9.09;91.86;103197.84;5090153;28;20460;-70
2022/04/28 07:44:45;;;;;;;8.30;4.10;;;;;;;9.14;91.43;103196.38;5091921;28;20043;-71
2022/04/28 07:47:10;;;;;;;12.23;4.85;;;;;;;9.24;92.35;103197.84;5093223;28;20126;-70
2022/04/28 07:49:36;;;;;;;13.68;5.22;;;;;;;9.25;90.09;103204.88;5091596;28;20459;-68
2022/04/28 07:52:02;;;;;;;13.13;5.03;;;;;;;9.39;89.95;103214.50;5090241;28;20020;-69
2022/04/28 07:54:28;;;;;;;9.40;5.25;;;;;;;9.43;91.32;103216.50;5092002;28;20367;-70
2022/04/28 07:56:54;;;;;;;15.40;5.10;;;;;;;9.37;90.85;103208.28;5090965;28;20042;-72
2022/04/28 07:59:19;;;;;;;13.00;4.72;;;;;;;9.38;91.09;103217.06;5092959;28;20020;-70
2022/04/28 08:01:44;;;;;;;8.35;4.50;;;;;;;9.52;91.15;103205.66;5090755;28;20027;-71
2022/04/28 08:04:10;;;;;;;10.90;4.00;;;;;;;9.58;90.32;103213.00;5093414;28;20531;-69
2022/04/28 08:06:35;;;;;;;11.02;4.38;;;;;;;9.70;89.12;103211.06;5091279;28;20020;-72
2022/04/28 08:09:00;;;;;;;14.27;4.88;;;;;;;9.91;88.76;103211.41;5092709;28;20016;-72
2022/04/28 08:11:26;;;;;;;11.27;5.13;;;;;;;9.86;85.85;103205.00;5090565;28;20016;-71
2022/04/28 08:13:51;;;;;;;10.43;5.13;;;;;;;10.00;87.02;103216.28;5092280;28;20020;-70
2022/04/28 08:16:16;;;;;;;13.60;6.05;;;;;;;10.09;88.38;103222.09;5090246;28;20024;-72
2022/04/28 08:18:42;;;;;;;14.38;4.90;;;;;;;10.01;86.20;103217.19;5108649;28;20143;-71
2022/04/28 08:21:08;;;;;;;15.98;6.47;;;;;;;10.15;87.52;103217.97;5093407;28;20031;-70
2022/04/28 08:23:36;;;;;;;13.52;4.70;;;;;;;10.37;86.64;103223.66;5092927;28;20027;-70
2022/04/28 08:26:05;;;;;;;9.85;5.32;;;;;;;10.60;86.52;103216.13;5091498;28;20036;-71
2022/04/28 08:28:31;;;;;;;14.20;4.85;;;;;;;10.72;86.53;103216.81;5066085;28;20053;-72
2022/04/28 08:30:57;;;;;;;12.20;4.55;;;;;;;10.87;85.45;103214.09;5070325;28;20027;-71
2022/04/28 08:33:22;;;;;;;10.98;4.45;;;;;;;10.74;83.05;103215.16;5072022;28;20112;-71
2022/04/28 08:35:48;;;;;;;9.82;4.13;;;;;;;10.84;82.29;103215.63;5073920;28;20016;-71
2022/04/28 08:38:14;;;;;;;11.27;5.22;;;;;;;10.66;83.46;103213.81;5073586;28;20040;-73
2022/04/28 08:40:42;;;;;;;8.55;4.70;;;;;;;10.60;83.29;103211.75;5066686;28;20075;-72
2022/04/28 08:43:08;;;;;;;14.73;5.40;;;;;;;10.50;83.73;103216.44;5073536;28;20064;-70
2022/04/28 08:48:34;;;;;;;15.20;5.28;;;;;;;10.88;84.74;103218.53;5073790;28;20113;-71
2022/04/28 08:50:59;;;;;;;10.48;5.47;;;;;;;10.93;84.35;103210.88;5073151;28;20028;-71
2022/04/28 08:53:25;;;;;;;13.48;5.20;;;;;;;11.06;84.01;103218.59;5073438;28;20028;-71
2022/04/28 08:55:50;;;;;;;12.23;4.97;;;;;;;10.99;83.16;103216.47;5072098;28;20411;-72
2022/04/28 08:58:15;;;;;;;11.45;4.18;;;;;;;10.85;83.46;103217.47;5071979;28;20464;-72
2022/04/28 09:00:41;;;;;;;9.15;4.32;;;;;;;10.96;82.60;103218.97;5071342;28;20020;-71
2022/04/28 09:03:06;;;;;;;11.25;4.47;;;;;;;10.92;81.42;103214.31;5070890;28;20099;-70
2022/04/28 09:05:33;;;;;;;10.18;4.28;;;;;;;11.05;82.04;103227.31;5071056;28;20025;-71
2022/04/28 09:07:58;;;;;;;10.82;4.35;;;;;;;11.12;80.61;103221.56;5071863;28;20056;-73
2022/04/28 09:10:32;;;;;;;12.43;4.38;;;;;;;11.53;81.57;103220.97;5078911;28;20056;-72
2022/04/28 09:15:50;;;;;;;7.97;3.53;;;;;;;11.59;78.50;103216.03;5071967;28;20511;-69
2022/04/28 09:18:17;;;;;;;12.80;4.30;;;;;;;11.68;79.24;103216.50;5070673;28;20064;-71
2022/04/28 09:20:44;;;;;;;13.35;4.45;;;;;;;11.57;81.28;103205.41;5069308;28;20431;-71
2022/04/28 09:23:10;;;;;;;14.02;4.50;;;;;;;11.70;77.82;103206.91;5072454;28;20090;-70
2022/04/28 09:25:37;;;;;;;9.48;3.72;;;;;;;11.71;78.44;103200.81;5071076;28;20048;-69
2022/04/28 09:28:03;;;;;;;8.68;4.05;;;;;;;11.88;78.51;103201.66;5060297;28;20032;-71
2022/04/28 09:30:49;;;;;;;6.97;3.95;;;;;;;12.21;75.94;103195.31;5062883;28;20033;-71
2022/04/28 09:33:17;;;;;;;11.13;3.88;;;;;;;12.43;75.37;103198.16;5067961;28;20033;-73
2022/04/28 09:35:48;;;;;;;8.75;3.83;;;;;;;12.65;76.73;103202.69;5072379;28;20027;-72
2022/04/28 09:38:14;;;;;;;9.18;4.43;;;;;;;12.78;76.82;103193.59;5065185;28;20440;-71
2022/04/28 09:43:27;;;;;;;7.57;4.57;;;;;;;12.48;75.47;103203.66;5066287;28;20131;-71
2022/04/28 09:45:55;;;;;;;12.23;5.03;;;;;;;12.51;76.69;103208.16;5073171;28;20111;-71
2022/04/28 09:48:21;;;;;;;12.93;4.97;;;;;;;12.94;73.17;103208.41;5073567;28;20062;-72
2022/04/28 09:50:48;;;;;;;9.93;5.00;;;;;;;13.06;74.36;103205.41;5070285;28;20028;-71
2022/04/28 09:53:15;;;;;;;12.93;4.45;;;;;;;13.36;75.58;103214.63;5069639;28;20020;-71
2022/04/28 09:55:43;;;;;;;7.95;4.10;;;;;;;13.11;70.96;103211.78;5072629;28;20453;-71
2022/04/28 09:58:11;;;;;;;12.50;4.55;;;;;;;13.07;72.59;103215.13;5072187;28;20368;-71
2022/04/28 10:00:36;;;;;;;11.32;4.78;;;;;;;13.01;70.22;103212.22;5072609;28;20028;-71
2022/04/28 10:03:03;;;;;;;18.90;5.55;;;;;;;12.37;73.48;103216.38;5057738;28;20020;-70
2022/04/28 10:05:29;;;;;;;11.02;4.93;;;;;;;12.59;72.05;103206.81;5071944;28;20028;-73
2022/04/28 10:07:55;;;;;;;17.67;4.80;;;;;;;12.17;72.67;103201.28;5071131;28;20550;-72
2022/04/28 10:10:21;;;;;;;14.35;5.18;;;;;;;12.63;73.08;103200.84;5071232;28;20082;-71
2022/04/28 10:12:47;;;;;;;8.32;4.85;;;;;;;12.81;73.17;103193.72;5071407;28;20032;-72
2022/04/28 10:15:15;;;;;;;11.77;5.18;;;;;;;12.86;71.71;103198.31;5070106;28;20043;-71
2022/04/28 10:18:12;;;;;;;9.07;4.20;;;;;;;13.23;72.29;103202.59;5085447;28;20060;-70
2022/04/28 10:20:42;;;;;;;14.48;5.18;;;;;;;13.44;70.95;103194.72;5055948;28;20033;-71
2022/04/28 10:23:10;;;;;;;12.23;4.35;;;;;;;13.94;68.24;103190.59;5071329;28;20066;-70
2022/04/28 10:34:30;;;;;;;10.52;4.68;;;;;;;14.28;65.16;103193.69;5048987;28;20044;-72
2022/04/28 10:37:04;;;;;;;9.63;4.00;;;;;;;14.46;64.04;103186.47;5058888;28;20036;-71
2022/04/28 10:39:39;;;;;;;9.23;4.30;;;;;;;14.65;63.69;103189.84;5071954;28;20464;-71
2022/04/28 10:42:31;;;;;;;11.95;3.92;;;;;;;15.33;64.68;103202.91;5070955;28;20039;-72
2022/04/28 10:44:57;;;;;;;7.65;4.93;;;;;;;14.99;60.75;103189.34;5041022;28;20403;-70
2022/04/28 10:47:33;;;;;;;7.68;3.70;;;;;;;15.26;60.60;103192.91;5075308;28;20028;-71
2022/04/28 10:49:59;;;;;;;7.82;4.05;;;;;;;15.56;57.40;103177.16;5066246;28;20024;-72
2022/04/28 10:52:26;;;;;;;8.98;4.05;;;;;;;15.44;57.89;103182.94;5073566;28;20464;-71
2022/04/28 10:55:00;;;;;;;7.00;3.95;;;;;;;15.79;59.54;103188.53;5075502;28;20091;-71
2022/04/28 10:57:36;;;;;;;10.05;4.40;;;;;;;15.99;55.34;103185.63;5074336;28;20051;-72
2022/04/28 11:00:03;;;;;;;11.93;3.85;;;;;;;16.22;55.40;103177.47;5064212;28;20099;-71
2022/04/28 11:02:28;;;;;;;11.70;4.03;;;;;;;16.37;56.48;103188.56;5070739;28;20031;-71
2022/04/28 11:05:04;;;;;;;10.90;3.97;;;;;;;15.92;55.84;103187.19;5073931;28;20041;-72
2022/04/28 11:07:31;;;;;;;9.93;3.70;;;;;;;16.13;57.14;103186.97;5071859;28;20028;-71
2022/04/28 11:10:07;;;;;;;10.25;3.88;;;;;;;15.97;54.55;103174.97;5075142;28;20116;-72
2022/04/28 11:12:37;;;;;;;13.00;3.83;;;;;;;16.28;54.46;103178.56;5074538;28;20035;-72
2022/04/28 11:15:12;;;;;;;7.78;4.22;;;;;;;16.47;54.24;103171.16;5057118;28;20040;-72
2022/04/28 11:17:39;;;;;;;7.72;3.95;;;;;;;16.93;51.03;103172.50;5071363;28;20338;-72
2022/04/28 11:20:07;;;;;;;11.73;3.50;;;;;;;16.90;51.45;103169.75;5073974;28;20032;-72
2022/04/28 11:22:33;;;;;;;9.18;3.67;;;;;;;17.34;52.37;103182.44;5073070;28;20028;-72
2022/04/28 11:24:59;;;;;;;10.00;3.72;;;;;;;17.31;51.21;103164.63;5074476;28;20029;-71
2022/04/28 11:27:27;;;;;;;8.27;4.45;;;;;;;17.31;49.53;103169.06;5062105;28;20064;-73
2022/04/28 11:29:58;;;;;;;9.80;3.97;;;;;;;17.54;50.19;103167.00;5062461;28;20032;-71
2022/04/28 11:32:24;;;;;;;14.10;3.80;;;;;;;17.73;50.92;103178.06;5071328;28;20029;-73
2022/04/28 11:34:52;;;;;;;9.35;3.70;;;;;;;17.55;49.73;103179.41;5074365;28;20082;-73
2022/04/28 11:37:22;;;;;;;4.75;3.58;;;;;;;17.94;50.16;103175.06;5069917;28;20503;-72
2022/04/28 11:39:51;;;;;;;13.25;4.05;;;;;;;17.91;49.09;103166.97;5086694;28;20016;-73
2022/04/28 11:42:18;;;;;;;8.65;4.45;;;;;;;17.93;48.89;103173.25;5071274;28;20029;-72
2022/04/28 11:44:56;;;;;;;8.50;4.40;;;;;;;18.03;47.79;103167.28;5073957;28;20361;-72
2022/04/28 11:47:24;;;;;;;10.65;4.63;;;;;;;18.26;48.53;103158.88;5070706;28;20067;-72
2022/04/28 11:49:57;;;;;;;14.13;4.70;;;;;;;17.78;52.31;103161.34;5073912;28;20476;-73